Time;durP1;ratioP1;P1;durP2;ratioP2;P2;SDS_P1;SDS_P2;PMS_P1;PMS_P2;Temp;Humidity;BMP_temperature;BMP_pressure;BME280_temperature;BME280_humidity;BME280_pressure;Samples;Min_cycle;Max_cycle;Signal;HPM_P1;HPM_P2
2022/12/24 00:02:34;;;;;;;58.95;10.52;;;;;;;8.59;100.00;100571.03;10378903;28;20382;-69
2022/12/24 00:07:34;;;;;;;40.17;8.75;;;;;;;8.44;100.00;100567.53;10378964;28;20100;-70
2022/12/24 00:12:35;;;;;;;29.00;9.02;;;;;;;8.47;100.00;100570.69;10379691;28;20112;-69
2022/12/24 00:17:35;;;;;;;27.95;7.63;;;;;;;8.43;100.00;100566.72;10379069;28;20398;-69
2022/12/24 00:22:36;;;;;;;31.00;8.98;;;;;;;8.45;100.00;100580.00;10379823;28;20041;-69
2022/12/24 00:27:36;;;;;;;33.42;9.00;;;;;;;8.37;100.00;100568.28;10377929;28;20469;-69
2022/12/24 00:32:37;;;;;;;50.25;10.30;;;;;;;8.34;100.00;100579.44;10378517;28;20042;-69
2022/12/24 00:37:38;;;;;;;44.15;10.50;;;;;;;8.32;100.00;100584.19;10379589;28;20124;-70
2022/12/24 00:42:38;;;;;;;34.47;6.18;;;;;;;8.33;100.00;100593.13;10379832;28;20037;-69
2022/12/24 00:47:38;;;;;;;32.95;7.90;;;;;;;8.30;100.00;100598.91;10379612;28;20486;-70
2022/12/24 00:52:39;;;;;;;44.53;9.80;;;;;;;8.28;100.00;100615.28;10378093;28;20184;-70
2022/12/24 00:57:39;;;;;;;35.60;6.65;;;;;;;8.27;100.00;100612.78;10376297;28;20030;-69
2022/12/24 01:02:39;;;;;;;35.72;8.77;;;;;;;8.25;100.00;100625.59;10377227;28;20057;-69
2022/12/24 01:07:43;;;;;;;48.45;10.18;;;;;;;8.28;100.00;100627.94;10378752;28;20107;-70
2022/12/24 01:12:44;;;;;;;50.00;11.10;;;;;;;8.23;100.00;100641.13;10377302;28;20103;-71
2022/12/24 01:17:44;;;;;;;39.85;11.45;;;;;;;8.17;100.00;100642.75;10376688;28;20108;-69
2022/12/24 01:22:45;;;;;;;30.27;8.27;;;;;;;8.10;100.00;100653.44;10376351;28;20034;-69
2022/12/24 01:27:45;;;;;;;53.65;9.15;;;;;;;8.08;100.00;100650.09;10376982;28;20482;-69
2022/12/24 01:32:45;;;;;;;29.35;8.68;;;;;;;8.07;100.00;100653.81;10375590;28;20049;-70
2022/12/24 01:37:46;;;;;;;33.28;8.52;;;;;;;8.10;100.00;100669.63;10377065;28;20530;-70
2022/12/24 01:49:05;;;;;;;23.15;8.85;;;;;;;8.19;100.00;100674.91;10390356;28;20054;-69
2022/12/24 01:54:18;;;;;;;40.08;8.93;;;;;;;8.19;100.00;100677.59;10374155;28;20442;-70
2022/12/24 01:59:19;;;;;;;34.78;7.28;;;;;;;8.19;100.00;100686.53;10375823;28;20034;-70
2022/12/24 02:04:38;;;;;;;42.00;8.82;;;;;;;8.19;100.00;100702.72;10376275;28;20042;-69
2022/12/24 02:09:38;;;;;;;40.25;7.78;;;;;;;8.24;100.00;100699.47;10376067;28;20409;-70
2022/12/24 02:14:38;;;;;;;32.92;9.45;;;;;;;8.28;100.00;100701.59;10375319;28;20033;-70
2022/12/24 02:19:57;;;;;;;41.28;8.77;;;;;;;8.49;100.00;100705.44;10373987;28;20038;-69
2022/12/24 02:25:29;;;;;;;48.47;11.20;;;;;;;8.67;100.00;100713.09;10375578;28;20125;-69
2022/12/24 02:30:35;;;;;;;34.08;8.25;;;;;;;8.82;100.00;100719.31;10388860;28;20037;-70
2022/12/24 02:35:57;;;;;;;28.90;7.18;;;;;;;8.89;100.00;100719.38;10358085;28;20109;-71
2022/12/24 02:41:01;;;;;;;44.58;6.93;;;;;;;8.91;100.00;100720.03;10358270;28;20128;-71
2022/12/24 02:46:08;;;;;;;25.42;7.93;;;;;;;8.92;100.00;100717.13;10373532;28;20050;-69
2022/12/24 02:51:08;;;;;;;31.70;7.18;;;;;;;8.83;100.00;100715.56;10373946;28;20077;-69
2022/12/24 02:56:40;;;;;;;38.25;8.82;;;;;;;8.77;100.00;100735.25;10373273;28;20033;-70
2022/12/24 03:01:56;;;;;;;52.13;10.32;;;;;;;8.85;100.00;100744.06;10374900;28;20030;-70
2022/12/24 03:07:05;;;;;;;37.77;8.23;;;;;;;8.95;100.00;100743.75;10390072;28;20034;-70
2022/12/24 03:12:18;;;;;;;28.15;9.57;;;;;;;9.04;100.00;100742.63;10358162;28;20066;-69
2022/12/24 03:17:19;;;;;;;28.02;8.02;;;;;;;9.10;100.00;100764.50;10376654;28;20125;-69
2022/12/24 03:22:19;;;;;;;55.08;8.73;;;;;;;9.11;100.00;100764.31;10380556;28;20045;-69
2022/12/24 03:27:19;;;;;;;29.27;8.05;;;;;;;9.18;100.00;100753.56;10380367;28;20038;-70
2022/12/24 03:32:38;;;;;;;28.15;6.90;;;;;;;9.27;100.00;100766.75;10380842;28;20068;-69
2022/12/24 03:37:39;;;;;;;34.90;9.07;;;;;;;9.27;100.00;100760.53;10381708;28;20035;-71
2022/12/24 03:42:39;;;;;;;29.98;6.93;;;;;;;9.24;100.00;100752.78;10379912;28;20030;-69
2022/12/24 03:47:40;;;;;;;29.33;6.43;;;;;;;9.20;100.00;100755.06;10381210;28;20053;-70
2022/12/24 03:52:40;;;;;;;27.42;8.38;;;;;;;9.19;100.00;100755.22;10380630;28;20070;-70
2022/12/24 03:57:40;;;;;;;44.88;10.02;;;;;;;9.17;100.00;100766.25;10381775;28;20053;-70
2022/12/24 04:02:41;;;;;;;42.15;9.80;;;;;;;9.20;100.00;100763.16;10380163;28;20034;-70
2022/12/24 04:07:41;;;;;;;35.22;9.77;;;;;;;9.25;100.00;100770.66;10379051;28;20137;-69
2022/12/24 04:12:41;;;;;;;38.65;8.85;;;;;;;9.25;100.00;100776.94;10380067;28;20052;-71
2022/12/24 04:17:42;;;;;;;28.95;7.47;;;;;;;9.29;100.00;100771.97;10380051;28;20034;-69
2022/12/24 04:22:42;;;;;;;32.40;8.25;;;;;;;9.35;100.00;100784.72;10378382;28;20034;-69
2022/12/24 04:27:43;;;;;;;33.33;6.75;;;;;;;9.34;100.00;100788.44;10378148;28;20038;-69
2022/12/24 04:32:43;;;;;;;28.35;7.50;;;;;;;9.34;100.00;100790.31;10378619;28;20034;-71
2022/12/24 04:37:43;;;;;;;27.90;9.38;;;;;;;9.36;100.00;100793.66;10378875;28;20034;-69
2022/12/24 04:42:44;;;;;;;32.08;7.85;;;;;;;9.36;100.00;100805.31;10378097;28;20064;-69
2022/12/24 04:47:44;;;;;;;29.58;6.68;;;;;;;9.30;100.00;100806.91;10377249;28;20053;-69
2022/12/24 04:52:45;;;;;;;33.70;8.77;;;;;;;9.23;100.00;100806.00;10378457;28;20049;-68
2022/12/24 04:57:45;;;;;;;23.38;7.25;;;;;;;9.23;100.00;100819.50;10378677;28;20030;-68
2022/12/24 05:02:45;;;;;;;34.97;8.90;;;;;;;9.18;100.00;100802.19;10376721;28;20045;-69
2022/12/24 05:07:46;;;;;;;36.30;9.60;;;;;;;9.16;100.00;100817.78;10376401;28;20433;-69
2022/12/24 05:12:46;;;;;;;32.33;8.60;;;;;;;9.21;100.00;100824.25;10377016;28;20042;-68
2022/12/24 05:17:46;;;;;;;46.45;9.60;;;;;;;9.20;100.00;100832.56;10377971;28;20061;-69
2022/12/24 05:28:06;;;;;;;30.17;7.15;;;;;;;9.21;100.00;100812.63;10376661;28;20038;-68
2022/12/24 05:33:06;;;;;;;42.75;7.97;;;;;;;9.28;100.00;100810.81;10359860;28;20038;-69
2022/12/24 05:38:07;;;;;;;31.00;8.30;;;;;;;9.20;100.00;100819.91;10376598;28;20057;-69
2022/12/24 05:43:07;;;;;;;40.42;8.48;;;;;;;9.10;100.00;100829.34;10376064;28;20038;-68
2022/12/24 05:48:07;;;;;;;38.60;8.00;;;;;;;9.08;100.00;100843.03;10374597;28;20054;-69
2022/12/24 05:53:08;;;;;;;37.10;8.40;;;;;;;8.91;100.00;100839.69;10376424;28;20045;-69
2022/12/24 05:58:08;;;;;;;36.88;11.05;;;;;;;8.79;100.00;100841.19;10375784;28;20080;-69
2022/12/24 06:03:09;;;;;;;25.33;8.10;;;;;;;8.67;100.00;100853.47;10390938;28;20069;-68
2022/12/24 06:08:09;;;;;;;41.03;10.05;;;;;;;8.58;100.00;100861.69;10374427;28;20042;-69
2022/12/24 06:13:09;;;;;;;31.02;8.85;;;;;;;8.56;100.00;100866.44;10392472;28;20034;-69
2022/12/24 06:18:10;;;;;;;56.75;13.30;;;;;;;8.56;100.00;100871.00;10374498;28;20107;-69
2022/12/24 06:23:10;;;;;;;57.17;13.60;;;;;;;8.47;100.00;100881.03;10374618;28;20038;-68
2022/12/24 06:28:11;;;;;;;43.95;10.55;;;;;;;8.42;100.00;100890.69;10375661;28;20072;-69
2022/12/24 06:33:11;;;;;;;29.88;11.45;;;;;;;8.43;100.00;100893.22;10374865;28;20030;-70
2022/12/24 06:38:12;;;;;;;34.28;11.60;;;;;;;8.41;100.00;100887.16;10376733;28;20077;-69
2022/12/24 06:43:12;;;;;;;45.08;10.40;;;;;;;8.30;100.00;100885.72;10377900;28;20087;-69
2022/12/24 06:48:13;;;;;;;43.92;10.80;;;;;;;8.13;100.00;100887.69;10374612;28;20104;-69
2022/12/24 06:53:14;;;;;;;35.35;10.70;;;;;;;8.06;100.00;100892.16;10394410;28;20041;-68
2022/12/24 06:58:14;;;;;;;49.75;10.82;;;;;;;8.03;100.00;100910.56;10384605;28;20038;-70
2022/12/24 07:03:14;;;;;;;30.73;10.30;;;;;;;7.90;100.00;100901.22;10383200;28;20030;-69
2022/12/24 07:08:15;;;;;;;47.60;11.13;;;;;;;7.90;100.00;100916.56;10382503;28;20382;-69
2022/12/24 07:13:15;;;;;;;48.88;12.45;;;;;;;7.91;100.00;100924.47;10399445;28;20076;-69
2022/12/24 07:18:16;;;;;;;45.90;11.95;;;;;;;7.98;100.00;100916.50;10382768;28;20034;-69
2022/12/24 07:23:16;;;;;;;51.95;12.68;;;;;;;8.15;100.00;100925.28;10381922;28;20026;-69
2022/12/24 07:28:17;;;;;;;42.08;9.13;;;;;;;8.15;100.00;100939.63;10381728;28;20092;-70
2022/12/24 07:33:17;;;;;;;48.55;9.95;;;;;;;8.20;100.00;100940.94;10388162;28;20038;-70
2022/12/24 07:38:17;;;;;;;42.30;9.85;;;;;;;8.15;100.00;100952.28;10397286;28;20065;-68
2022/12/24 07:43:18;;;;;;;41.78;8.43;;;;;;;8.07;100.00;100963.97;10393958;28;20088;-69
2022/12/24 07:48:18;;;;;;;47.70;11.05;;;;;;;8.01;100.00;100980.88;10395189;28;20053;-69
2022/12/24 07:53:19;;;;;;;37.22;9.27;;;;;;;8.06;100.00;100997.34;10395756;28;20390;-68
2022/12/24 07:58:19;;;;;;;46.38;10.35;;;;;;;8.13;100.00;101000.97;10395933;28;20042;-69
2022/12/24 08:03:20;;;;;;;46.03;10.13;;;;;;;8.21;100.00;101016.28;10410635;28;20362;-71
2022/12/24 08:08:20;;;;;;;58.03;10.25;;;;;;;8.20;100.00;101006.53;10407272;28;20108;-69
2022/12/24 08:13:21;;;;;;;44.08;10.77;;;;;;;8.28;100.00;101019.13;10391417;28;20030;-70
2022/12/24 08:18:21;;;;;;;49.67;10.93;;;;;;;8.29;100.00;101020.78;10392622;28;20096;-71
2022/12/24 08:23:22;;;;;;;39.83;10.52;;;;;;;8.33;100.00;101028.34;10400549;28;20098;-71
2022/12/24 08:28:22;;;;;;;42.55;10.48;;;;;;;8.45;100.00;101039.56;10392542;28;20030;-69
2022/12/24 08:33:23;;;;;;;58.05;14.35;;;;;;;8.44;100.00;101037.06;10344973;28;20054;-72
2022/12/24 08:38:23;;;;;;;57.38;12.10;;;;;;;8.50;100.00;101050.69;10399607;28;20034;-71
2022/12/24 08:43:25;;;;;;;38.75;13.18;;;;;;;8.73;100.00;101069.56;10417829;28;20041;-71
2022/12/24 08:48:25;;;;;;;38.78;10.25;;;;;;;8.95;100.00;101073.25;10395407;28;20381;-70
2022/12/24 08:53:26;;;;;;;38.47;11.82;;;;;;;9.07;100.00;101074.50;10396441;28;20034;-69
2022/12/24 08:58:26;;;;;;;34.47;11.40;;;;;;;9.28;100.00;101083.75;10409624;28;20034;-70
2022/12/24 09:03:27;;;;;;;47.90;10.75;;;;;;;9.30;100.00;101101.47;10404219;28;20034;-70
2022/12/24 09:08:27;;;;;;;48.78;10.43;;;;;;;9.36;100.00;101082.84;10402307;28;20042;-71
2022/12/24 09:13:28;;;;;;;32.25;8.73;;;;;;;9.39;100.00;101087.88;10398094;28;20040;-70
2022/12/24 09:18:28;;;;;;;57.25;11.07;;;;;;;9.36;100.00;101105.28;10403670;28;20041;-71
2022/12/24 09:23:29;;;;;;;40.65;10.55;;;;;;;9.42;100.00;101118.06;10388868;28;20096;-70
2022/12/24 09:28:29;;;;;;;39.38;9.25;;;;;;;9.45;100.00;101130.38;10400815;28;20034;-72
2022/12/24 09:33:32;;;;;;;31.67;8.15;;;;;;;9.47;100.00;101129.16;10405318;28;20029;-71
2022/12/24 09:38:32;;;;;;;36.15;9.52;;;;;;;9.63;100.00;101132.72;10380106;28;20045;-70
2022/12/24 09:43:33;;;;;;;28.52;10.02;;;;;;;9.67;100.00;101126.78;10375532;28;20377;-70
2022/12/24 09:48:36;;;;;;;35.90;8.88;;;;;;;9.84;100.00;101143.63;10391740;28;20042;-70
2022/12/24 09:53:49;;;;;;;30.05;7.43;;;;;;;9.97;100.00;101138.41;10376350;28;20054;-70
2022/12/24 09:58:53;;;;;;;33.70;9.07;;;;;;;9.91;100.00;101152.69;10388233;28;20045;-70
2022/12/24 10:03:53;;;;;;;36.67;9.73;;;;;;;9.82;100.00;101158.38;10378612;28;20022;-72
2022/12/24 10:09:16;;;;;;;25.65;7.60;;;;;;;9.87;100.00;101151.38;10376153;28;20037;-71
2022/12/24 10:14:31;;;;;;;24.10;7.50;;;;;;;10.10;100.00;101158.56;10375474;28;20108;-71
2022/12/24 10:20:06;;;;;;;23.38;6.93;;;;;;;10.42;100.00;101150.03;10374554;28;20065;-70
2022/12/24 10:25:19;;;;;;;37.95;9.77;;;;;;;10.73;100.00;101162.47;10374506;28;20377;-71
2022/12/24 10:30:21;;;;;;;37.00;8.65;;;;;;;10.52;100.00;101157.03;10373268;28;20493;-70
2022/12/24 10:35:26;;;;;;;23.50;7.13;;;;;;;10.52;100.00;101168.69;10375068;28;20076;-71
2022/12/24 10:40:34;;;;;;;40.67;8.82;;;;;;;10.04;100.00;101181.78;10373194;28;20032;-70
2022/12/24 10:45:36;;;;;;;37.63;9.43;;;;;;;9.89;100.00;101191.75;10373896;28;20026;-71
2022/12/24 10:50:59;;;;;;;30.52;8.40;;;;;;;9.92;100.00;101186.84;10374358;28;20054;-70
2022/12/24 10:56:01;;;;;;;37.30;11.10;;;;;;;9.99;100.00;101187.78;10373462;28;20077;-70
2022/12/24 11:01:02;;;;;;;25.70;8.52;;;;;;;9.87;100.00;101189.25;10389689;28;20038;-69
2022/12/24 11:06:13;;;;;;;29.27;8.68;;;;;;;9.82;100.00;101199.78;10372947;28;20533;-69
2022/12/24 11:11:18;;;;;;;34.20;7.97;;;;;;;9.73;100.00;101190.06;10389582;28;20107;-70
2022/12/24 11:16:30;;;;;;;28.35;8.65;;;;;;;9.81;100.00;101192.69;10373268;28;20077;-69
2022/12/24 11:21:32;;;;;;;21.42;6.53;;;;;;;9.89;100.00;101184.50;10372997;28;20117;-70
2022/12/24 11:26:33;;;;;;;28.95;8.70;;;;;;;10.02;100.00;101195.50;10373549;28;20541;-69
2022/12/24 11:31:36;;;;;;;30.90;8.50;;;;;;;10.17;100.00;101195.50;10388517;28;20113;-71
2022/12/24 11:36:36;;;;;;;28.55;6.95;;;;;;;10.19;100.00;101196.16;10374199;28;20030;-69
2022/12/24 11:41:36;;;;;;;32.70;6.43;;;;;;;10.22;100.00;101206.59;10395652;28;20036;-70
2022/12/24 11:46:39;;;;;;;10.18;5.60;;;;;;;10.35;100.00;101207.84;10392817;28;20065;-70
2022/12/24 11:51:39;;;;;;;23.13;7.32;;;;;;;10.39;100.00;101212.69;10396783;28;20135;-70
2022/12/24 11:56:43;;;;;;;23.02;6.40;;;;;;;10.34;100.00;101217.84;10431339;28;20037;-70
2022/12/24 12:01:59;;;;;;;25.45;7.63;;;;;;;10.41;100.00;101213.34;10416054;28;20076;-70
2022/12/24 12:07:05;;;;;;;20.27;7.32;;;;;;;10.62;100.00;101217.13;10403192;28;20026;-69
2022/12/24 12:12:13;;;;;;;43.60;9.80;;;;;;;10.51;100.00;101225.75;10403410;28;20061;-71
2022/12/24 12:17:32;;;;;;;17.50;6.05;;;;;;;10.41;100.00;101221.47;10399476;28;20030;-70
2022/12/24 12:22:35;;;;;;;24.90;6.13;;;;;;;10.66;100.00;101224.69;10419825;28;20030;-70
2022/12/24 12:27:42;;;;;;;17.25;7.43;;;;;;;10.79;100.00;101240.25;10425365;28;20030;-70
2022/12/24 12:33:08;;;;;;;25.27;6.30;;;;;;;10.81;100.00;101242.75;10411791;28;20026;-69
2022/12/24 12:38:22;;;;;;;20.70;5.18;;;;;;;11.22;100.00;101240.28;10411693;28;20109;-70
2022/12/24 12:43:45;;;;;;;30.13;6.97;;;;;;;11.50;100.00;101243.06;10404769;28;20041;-69
2022/12/24 12:49:13;;;;;;;26.50;6.72;;;;;;;11.10;100.00;101252.66;10412132;28;20754;-71
2022/12/24 12:54:45;;;;;;;23.77;7.43;;;;;;;10.81;100.00;101251.72;10378456;28;20496;-71
2022/12/24 13:00:08;;;;;;;28.13;8.10;;;;;;;10.68;100.00;101248.88;10378868;28;20510;-70
2022/12/24 13:05:40;;;;;;;22.65;5.57;;;;;;;10.95;100.00;101239.19;10378039;28;20042;-69
2022/12/24 13:11:04;;;;;;;14.40;6.40;;;;;;;10.93;100.00;101255.63;10378844;28;20386;-75
2022/12/24 13:16:29;;;;;;;22.45;6.85;;;;;;;11.08;100.00;101265.59;10378113;28;20025;-67
2022/12/24 13:21:30;;;;;;;23.02;6.32;;;;;;;10.97;100.00;101275.03;10405231;28;20034;-71
2022/12/24 13:26:30;;;;;;;12.68;5.30;;;;;;;10.74;100.00;101279.78;10406700;28;20052;-68
2022/12/24 13:31:31;;;;;;;18.63;5.53;;;;;;;10.90;100.00;101284.97;10403784;28;20037;-68
2022/12/24 13:37:02;;;;;;;32.30;7.50;;;;;;;10.88;100.00;101282.47;10404536;28;20092;-69
2022/12/24 13:42:03;;;;;;;29.88;7.35;;;;;;;10.88;100.00;101287.03;10396778;28;20134;-71
2022/12/24 13:47:13;;;;;;;19.95;5.72;;;;;;;10.81;100.00;101286.09;10332562;28;20058;-68
2022/12/24 13:52:22;;;;;;;18.67;6.50;;;;;;;10.87;100.00;101297.03;10389819;28;20080;-68
2022/12/24 13:57:33;;;;;;;19.33;6.65;;;;;;;11.03;100.00;101295.13;10392087;28;20038;-68
2022/12/24 14:02:36;;;;;;;32.90;9.30;;;;;;;11.29;100.00;101297.28;10412461;28;20034;-69
2022/12/24 14:07:37;;;;;;;23.42;5.93;;;;;;;11.25;100.00;101291.41;10391928;28;20038;-69
2022/12/24 14:12:49;;;;;;;21.17;7.72;;;;;;;11.08;100.00;101293.53;10404983;28;20038;-70
2022/12/24 14:17:49;;;;;;;19.90;4.72;;;;;;;11.02;100.00;101294.28;10401946;28;20036;-69
2022/12/24 14:22:50;;;;;;;21.05;6.43;;;;;;;10.85;100.00;101298.28;10401548;28;20022;-68
2022/12/24 14:27:55;;;;;;;28.48;8.52;;;;;;;10.91;100.00;101301.06;10400914;28;20033;-69
2022/12/24 14:32:55;;;;;;;43.72;6.95;;;;;;;10.85;100.00;101311.81;10401782;28;20032;-69
2022/12/24 14:38:13;;;;;;;18.45;7.07;;;;;;;10.73;100.00;101300.63;10399542;28;20068;-75
2022/12/24 14:43:26;;;;;;;21.33;7.68;;;;;;;10.51;100.00;101309.69;10381596;28;20475;-70
2022/12/24 14:48:47;;;;;;;33.17;8.23;;;;;;;10.23;100.00;101316.53;10373663;28;20382;-68
2022/12/24 14:53:48;;;;;;;11.00;6.65;;;;;;;9.97;100.00;101325.09;10374390;28;20563;-68
2022/12/24 14:58:48;;;;;;;22.35;9.07;;;;;;;9.76;100.00;101331.19;10374017;28;20037;-68
2022/12/24 15:04:02;;;;;;;29.58;8.40;;;;;;;9.61;100.00;101330.31;10373854;28;20034;-70
2022/12/24 15:09:03;;;;;;;49.50;8.20;;;;;;;9.41;100.00;101343.47;10391150;28;20042;-68
2022/12/24 15:14:03;;;;;;;32.88;9.55;;;;;;;9.31;100.00;101342.81;10381190;28;20514;-68
2022/12/24 15:19:30;;;;;;;21.33;7.10;;;;;;;9.15;100.00;101351.03;10383548;28;20454;-69
2022/12/24 15:24:32;;;;;;;40.47;7.87;;;;;;;9.03;100.00;101361.38;10381876;28;20103;-69
2022/12/24 15:29:38;;;;;;;37.60;8.02;;;;;;;8.89;100.00;101360.25;10380702;28;20780;-68
2022/12/24 15:34:40;;;;;;;34.50;8.82;;;;;;;8.83;100.00;101361.81;10381718;28;20041;-69
2022/12/24 15:39:41;;;;;;;32.13;9.32;;;;;;;8.77;100.00;101375.16;10379621;28;20618;-69
2022/12/24 15:45:03;;;;;;;30.55;8.25;;;;;;;8.71;100.00;101379.44;10395774;28;20034;-70
2022/12/24 15:50:28;;;;;;;17.65;6.50;;;;;;;8.66;100.00;101383.66;10379825;28;20049;-69
2022/12/24 15:55:37;;;;;;;41.40;10.35;;;;;;;8.63;100.00;101379.44;10380166;28;20136;-69
2022/12/24 16:00:37;;;;;;;35.13;10.88;;;;;;;8.57;100.00;101385.53;10381743;28;20370;-70
2022/12/24 16:05:38;;;;;;;33.35;8.13;;;;;;;8.47;100.00;101385.72;10379970;28;20044;-70
2022/12/24 16:10:43;;;;;;;30.05;8.68;;;;;;;8.44;100.00;101383.34;10380622;28;20382;-69
2022/12/24 16:15:54;;;;;;;32.65;7.85;;;;;;;8.34;100.00;101388.06;10379108;28;20026;-69
2022/12/24 16:20:55;;;;;;;30.50;7.32;;;;;;;8.29;100.00;101396.66;10379229;28;20022;-69
2022/12/24 16:25:56;;;;;;;34.53;8.65;;;;;;;8.44;100.00;101394.16;10380015;28;20037;-69
2022/12/24 16:30:57;;;;;;;36.78;10.57;;;;;;;8.58;100.00;101390.75;10379814;28;20046;-70
2022/12/24 16:35:57;;;;;;;27.52;8.02;;;;;;;8.63;100.00;101398.34;10378411;28;20037;-69
2022/12/24 16:40:58;;;;;;;20.90;9.25;;;;;;;8.63;100.00;101389.41;10377217;28;20034;-70
2022/12/24 16:46:02;;;;;;;52.25;13.00;;;;;;;8.54;100.00;101378.59;10393899;28;20457;-69
2022/12/24 16:51:03;;;;;;;44.58;11.88;;;;;;;8.41;100.00;101377.47;10377077;28;20416;-69
2022/12/24 16:56:04;;;;;;;35.20;11.32;;;;;;;8.36;100.00;101373.41;10393038;28;20048;-70
2022/12/24 17:01:07;;;;;;;27.08;11.07;;;;;;;8.30;100.00;101382.16;10378256;28;20037;-70
2022/12/24 17:06:08;;;;;;;28.77;11.10;;;;;;;8.34;100.00;101385.38;10376730;28;20037;-69
2022/12/24 17:11:08;;;;;;;33.83;11.02;;;;;;;8.48;100.00;101383.84;10377136;28;20038;-69
2022/12/24 17:16:08;;;;;;;53.60;14.18;;;;;;;8.57;100.00;101386.34;10378059;28;20092;-69
2022/12/24 17:21:09;;;;;;;49.63;14.23;;;;;;;8.70;100.00;101376.88;10377869;28;20030;-69
2022/12/24 17:26:10;;;;;;;37.75;12.30;;;;;;;8.72;100.00;101374.84;10377242;28;20022;-69
2022/12/24 17:31:12;;;;;;;38.92;12.68;;;;;;;8.57;100.00;101372.03;10378505;28;20045;-69
2022/12/24 17:36:13;;;;;;;35.60;10.77;;;;;;;8.56;100.00;101365.78;10375755;28;20036;-69
2022/12/24 17:41:17;;;;;;;44.10;16.42;;;;;;;8.60;100.00;101360.88;10377192;28;20037;-69
2022/12/24 17:46:21;;;;;;;40.25;12.57;;;;;;;8.47;100.00;101358.72;10358911;28;20061;-69
2022/12/24 17:51:22;;;;;;;48.40;13.68;;;;;;;8.31;100.00;101364.13;10375398;28;20422;-71
2022/12/24 17:56:22;;;;;;;35.60;13.35;;;;;;;8.10;100.00;101365.50;10360141;28;20033;-69
2022/12/24 18:01:24;;;;;;;47.97;17.58;;;;;;;7.99;100.00;101371.22;10376768;28;20034;-69
2022/12/24 18:06:24;;;;;;;34.92;10.52;;;;;;;8.00;100.00;101372.91;10375862;28;20125;-69
2022/12/24 18:11:31;;;;;;;33.47;13.35;;;;;;;7.86;100.00;101371.75;10376283;28;20034;-70
2022/12/24 18:16:33;;;;;;;32.42;12.32;;;;;;;7.86;100.00;101376.28;10376625;28;20116;-70
2022/12/24 18:21:33;;;;;;;36.33;12.98;;;;;;;7.84;100.00;101373.75;10375222;28;20346;-68
2022/12/24 18:26:34;;;;;;;31.60;13.45;;;;;;;7.85;100.00;101369.22;10374706;28;20042;-69
2022/12/24 18:31:34;;;;;;;37.20;12.45;;;;;;;7.88;100.00;101371.56;10375040;28;20037;-69
2022/12/24 18:36:35;;;;;;;48.15;14.88;;;;;;;8.10;100.00;101379.00;10373710;28;20030;-70
2022/12/24 18:41:35;;;;;;;42.20;12.98;;;;;;;8.19;100.00;101371.72;10374750;28;20109;-69
2022/12/24 18:46:36;;;;;;;29.10;12.43;;;;;;;8.09;100.00;101374.59;10373843;28;20035;-69
2022/12/24 18:51:36;;;;;;;35.83;11.98;;;;;;;7.97;100.00;101381.34;10374388;28;20538;-69
2022/12/24 18:56:36;;;;;;;36.47;11.65;;;;;;;7.98;100.00;101385.75;10373305;28;20118;-69
2022/12/24 19:01:37;;;;;;;38.67;12.40;;;;;;;8.09;100.00;101368.38;10375867;28;20088;-69
2022/12/24 19:06:38;;;;;;;25.63;11.68;;;;;;;8.28;100.00;101383.34;10375287;28;20049;-69
2022/12/24 19:11:38;;;;;;;25.50;11.30;;;;;;;8.44;100.00;101386.06;10376400;28;20168;-69
2022/12/24 19:16:39;;;;;;;37.15;13.52;;;;;;;8.58;100.00;101385.38;10378495;28;20041;-69
2022/12/24 19:21:39;;;;;;;25.17;12.77;;;;;;;8.68;100.00;101387.00;10358695;28;20037;-70
2022/12/24 19:26:40;;;;;;;41.22;13.60;;;;;;;8.57;100.00;101383.66;10374976;28;20512;-71
2022/12/24 19:31:42;;;;;;;38.90;12.25;;;;;;;8.58;100.00;101381.78;10375132;28;20030;-69
2022/12/24 19:36:43;;;;;;;45.75;12.48;;;;;;;8.63;100.00;101387.53;10373755;28;20049;-69
2022/12/24 19:41:43;;;;;;;44.00;14.50;;;;;;;8.61;100.00;101390.41;10388697;28;20081;-69
2022/12/24 19:46:44;;;;;;;39.90;12.43;;;;;;;8.46;100.00;101389.44;10373658;28;20095;-70
2022/12/24 19:51:44;;;;;;;39.83;12.68;;;;;;;8.35;100.00;101382.47;10373882;28;20466;-68
2022/12/24 19:56:44;;;;;;;34.63;11.57;;;;;;;8.26;100.00;101379.97;10372650;28;20053;-69
2022/12/24 20:01:45;;;;;;;34.15;11.18;;;;;;;8.26;100.00;101386.22;10378299;28;20073;-69
2022/12/24 20:06:46;;;;;;;27.17;12.15;;;;;;;8.30;100.00;101370.53;10381066;28;20415;-71
2022/12/24 20:11:49;;;;;;;24.25;10.18;;;;;;;8.36;100.00;101356.38;10380844;28;20478;-69
2022/12/24 20:16:49;;;;;;;44.20;12.82;;;;;;;8.40;100.00;101349.63;10378797;28;20061;-69
2022/12/24 20:21:49;;;;;;;38.22;12.82;;;;;;;8.45;100.00;101358.03;10380297;28;20030;-69
2022/12/24 20:26:50;;;;;;;42.15;12.77;;;;;;;8.38;100.00;101349.78;10378389;28;20072;-69
2022/12/24 20:31:50;;;;;;;26.70;12.95;;;;;;;8.32;100.00;101341.50;10379960;28;20037;-68
2022/12/24 20:36:51;;;;;;;31.15;12.27;;;;;;;8.30;100.00;101340.88;10380148;28;20080;-69
2022/12/24 20:41:51;;;;;;;37.60;13.27;;;;;;;8.30;100.00;101338.16;10380090;28;20370;-69
2022/12/24 20:46:52;;;;;;;48.72;17.40;;;;;;;8.29;100.00;101348.09;10378965;28;20041;-69
2022/12/24 20:51:52;;;;;;;40.58;12.93;;;;;;;8.25;100.00;101356.72;10380899;28;20054;-70
2022/12/24 20:56:52;;;;;;;46.97;14.30;;;;;;;8.26;100.00;101347.59;10361834;28;20442;-69
2022/12/24 21:01:53;;;;;;;44.88;14.20;;;;;;;8.24;100.00;101349.63;10381320;28;20034;-69
2022/12/24 21:06:53;;;;;;;23.17;12.45;;;;;;;8.16;100.00;101347.78;10379370;28;20034;-69
2022/12/24 21:16:54;;;;;;;23.33;12.20;;;;;;;8.11;100.00;101355.56;10377800;28;20038;-69
2022/12/24 21:21:54;;;;;;;27.83;11.57;;;;;;;8.16;100.00;101355.88;10377720;28;20500;-68
2022/12/24 21:26:55;;;;;;;30.50;13.85;;;;;;;8.34;100.00;101350.28;10394788;28;20477;-69
2022/12/24 21:31:55;;;;;;;18.42;11.10;;;;;;;8.36;100.00;101348.28;10379096;28;20371;-69
2022/12/24 21:36:56;;;;;;;42.35;13.85;;;;;;;8.47;100.00;101334.44;10400502;28;20038;-71
2022/12/24 21:41:56;;;;;;;27.92;11.60;;;;;;;8.61;100.00;101320.22;10405159;28;20037;-70
2022/12/24 21:46:56;;;;;;;51.88;13.48;;;;;;;8.51;100.00;101319.56;10397879;28;20466;-69
2022/12/24 21:51:57;;;;;;;31.73;12.07;;;;;;;8.42;100.00;101323.28;10394956;28;20054;-69
2022/12/24 22:02:19;;;;;;;34.15;11.38;;;;;;;8.36;100.00;101330.22;10391533;28;20093;-68
2022/12/24 22:12:42;;;;;;;35.13;12.40;;;;;;;8.23;100.00;101332.63;10389822;28;20124;-69
2022/12/24 22:17:42;;;;;;;36.20;12.38;;;;;;;8.25;100.00;101332.44;10390410;28;20038;-68
2022/12/24 22:22:42;;;;;;;36.60;11.93;;;;;;;8.34;100.00;101331.41;10379377;28;20437;-69
2022/12/24 22:27:43;;;;;;;46.50;12.77;;;;;;;8.42;100.00;101334.09;10377586;28;20084;-70
2022/12/24 22:32:43;;;;;;;33.60;11.27;;;;;;;8.50;100.00;101339.47;10358288;28;20045;-69
2022/12/24 22:37:43;;;;;;;23.48;10.50;;;;;;;8.65;100.00;101342.31;10377358;28;20378;-70
2022/12/24 22:42:44;;;;;;;23.45;12.20;;;;;;;8.73;100.00;101339.56;10379903;28;20034;-70
2022/12/24 22:47:44;;;;;;;21.63;9.82;;;;;;;8.82;100.00;101345.78;10380590;28;20165;-69
2022/12/24 22:52:45;;;;;;;21.23;10.73;;;;;;;8.85;100.00;101348.13;10379874;28;20061;-69
2022/12/24 22:57:46;;;;;;;28.65;9.55;;;;;;;8.90;100.00;101348.44;10374540;28;20056;-69
2022/12/24 23:02:46;;;;;;;29.02;11.77;;;;;;;8.99;100.00;101355.50;10389330;28;20401;-68
2022/12/24 23:07:47;;;;;;;26.38;9.80;;;;;;;9.05;100.00;101359.34;10374406;28;20068;-69
2022/12/24 23:18:06;;;;;;;26.15;10.27;;;;;;;9.06;100.00;101358.31;10373048;28;20077;-69
2022/12/24 23:23:07;;;;;;;20.35;11.23;;;;;;;9.02;100.00;101368.66;10372351;28;20034;-68